Terminal Aerodrome Forecast
Issued by NWS

Home | Current Version | Previous Version | Text Only | Print | Product List | Glossary On
Versions: 1 2 3 4 5 6 7 8 9 10 11 12 13 14 15 16 17
810
FTUS46 KSEW 221502 AAB
TAFPAE
TAF AMD
KPAE 221502Z 2215/2312 VRB03KT P6SM BKN007
     FM221800 35008KT P6SM SCT012
     FM230300 02004KT P6SM SKC=

USA.gov is the U.S. government's official web portal to all federal, state and local government web resources and services.